createdAt,value
2023-04-01T00:00:01.191Z,98358.87
2023-04-01T00:02:33.841Z,98372.59
2023-04-01T00:05:05.072Z,98361.31
2023-04-01T00:07:36.096Z,98359.47
2023-04-01T00:10:08.398Z,98368.00
2023-04-01T00:12:39.974Z,98360.99
2023-04-01T00:15:12.344Z,98365.27
2023-04-01T00:17:43.163Z,98361.06
2023-04-01T00:20:15.639Z,98371.70
2023-04-01T00:22:46.744Z,98364.06
2023-04-01T00:25:17.791Z,98354.49
2023-04-01T00:27:48.659Z,98358.09
2023-04-01T00:30:19.552Z,98358.16
2023-04-01T00:32:51.977Z,98353.81
2023-04-01T00:35:23.605Z,98356.48
2023-04-01T00:37:54.701Z,98354.81
2023-04-01T00:40:27.368Z,98352.22
2023-04-01T00:42:58.377Z,98349.63
2023-04-01T00:45:34.206Z,98345.35
2023-04-01T00:48:06.541Z,98350.77
2023-04-01T00:50:38.668Z,98344.72
2023-04-01T00:53:10.538Z,98355.20
2023-04-01T00:55:43.244Z,98343.89
2023-04-01T00:58:15.555Z,98343.12
2023-04-01T01:00:47.943Z,98349.23
2023-04-01T01:03:19.574Z,98354.50
2023-04-01T01:06:08.789Z,98341.59
2023-04-01T01:08:43.938Z,98343.97
2023-04-01T01:11:16.361Z,98348.23
2023-04-01T01:13:52.331Z,98341.30
2023-04-01T01:16:27.887Z,98342.97
2023-04-01T01:19:09.065Z,98347.31
2023-04-01T01:21:44.754Z,98346.25
2023-04-01T01:24:19.891Z,98348.95
2023-04-01T01:26:55.168Z,98354.03
2023-04-01T01:29:30.454Z,98352.29
2023-04-01T01:32:02.818Z,98350.47
2023-04-01T01:34:35.327Z,98350.47
2023-04-01T01:37:08.033Z,98354.81
2023-04-01T01:39:40.837Z,98347.87
2023-04-01T01:42:13.212Z,98353.06
2023-04-01T01:44:45.628Z,98347.77
2023-04-01T01:47:17.237Z,98347.63
2023-04-01T01:49:48.744Z,98357.19
2023-04-01T01:52:20.500Z,98351.15
2023-04-01T01:54:52.899Z,98363.20
2023-04-01T01:57:26.675Z,98350.30
2023-04-01T02:00:00.781Z,98358.09
2023-04-01T02:02:33.196Z,98352.00
2023-04-01T02:05:05.002Z,98353.67
2023-04-01T02:07:37.693Z,98351.00
2023-04-01T02:10:09.941Z,98350.01
2023-04-01T02:12:43.093Z,98354.13
2023-04-01T02:15:15.661Z,98358.47
2023-04-01T02:17:47.967Z,98354.95
2023-04-01T02:20:23.292Z,98362.59
2023-04-01T02:22:55.737Z,98364.12
2023-04-01T02:25:28.122Z,98366.72
2023-04-01T02:28:00.098Z,98369.23
2023-04-01T02:30:32.925Z,98364.80
2023-04-01T02:33:05.066Z,98365.50
2023-04-01T02:35:38.321Z,98367.17
2023-04-01T02:38:11.137Z,98368.84
2023-04-01T02:40:46.562Z,98366.95
2023-04-01T02:43:17.820Z,98371.29
2023-04-01T02:45:48.756Z,98372.22
2023-04-01T02:48:19.785Z,98372.22
2023-04-01T02:50:51.800Z,98373.03
2023-04-01T02:53:22.751Z,98378.08
2023-04-01T02:55:53.736Z,98376.34
2023-04-01T02:58:24.559Z,98377.87
2023-04-01T03:00:55.856Z,98377.87
2023-04-01T03:03:26.828Z,98370.22
2023-04-01T03:05:59.388Z,98367.63
2023-04-01T03:08:30.264Z,98372.74
2023-04-01T03:11:01.194Z,98368.37
2023-04-01T03:13:32.917Z,98379.61
2023-04-01T03:16:03.915Z,98377.87
2023-04-01T03:18:35.157Z,98379.46
2023-04-01T03:21:22.464Z,98382.88
2023-04-01T03:23:53.750Z,98385.33
2023-04-01T03:26:25.178Z,98391.38
2023-04-01T03:28:56.666Z,98390.45
2023-04-01T03:31:27.602Z,98383.33
2023-04-01T03:33:59.435Z,98396.32
2023-04-01T03:36:31.493Z,98397.10
2023-04-01T03:39:02.530Z,98394.35
2023-04-01T03:41:36.713Z,98396.84
2023-04-01T03:44:07.786Z,98389.75
2023-04-01T03:46:39.177Z,98399.30
2023-04-01T03:49:13.343Z,98410.47
2023-04-01T03:51:44.912Z,98410.55
2023-04-01T03:54:16.344Z,98415.59
2023-04-01T03:56:47.372Z,98420.01
2023-04-01T03:59:18.283Z,98424.20
2023-04-01T04:01:49.644Z,98420.61
2023-04-01T04:04:20.564Z,98428.33
2023-04-01T04:06:52.500Z,98430.11
2023-04-01T04:09:25.139Z,98430.00
2023-04-01T04:11:56.171Z,98430.00
2023-04-01T04:14:27.344Z,98436.91
2023-04-01T04:16:58.637Z,98436.72
2023-04-01T04:19:31.357Z,98440.92
2023-04-01T04:22:02.638Z,98436.27
2023-04-01T04:24:33.627Z,98437.95
2023-04-01T04:27:06.262Z,98441.14
2023-04-01T04:29:37.890Z,98441.73
2023-04-01T04:32:08.879Z,98440.58
2023-04-01T04:34:40.137Z,98444.70
2023-04-01T04:37:11.173Z,98446.06
2023-04-01T04:39:42.582Z,98442.39
2023-04-01T04:42:13.592Z,98448.25
2023-04-01T04:44:46.145Z,98448.02
2023-04-01T04:47:17.441Z,98443.33
2023-04-01T04:49:48.326Z,98450.05
2023-04-01T04:52:19.261Z,98455.77
2023-04-01T04:54:50.704Z,98452.50
2023-04-01T04:57:21.745Z,98464.31
2023-04-01T04:59:54.349Z,98461.63
2023-04-01T05:02:27.064Z,98468.27
2023-04-01T05:04:57.958Z,98468.04
2023-04-01T05:07:28.881Z,98473.98
2023-04-01T05:10:00.132Z,98475.58
2023-04-01T05:12:31.947Z,98475.08
2023-04-01T05:15:06.311Z,98475.77
2023-04-01T05:17:38.392Z,98486.77
2023-04-01T05:20:09.939Z,98481.98
2023-04-01T05:22:41.456Z,98486.98
2023-04-01T05:25:12.724Z,98484.10
2023-04-01T05:27:43.711Z,98487.20
2023-04-01T05:30:14.871Z,98485.09
2023-04-01T05:32:47.476Z,98485.59
2023-04-01T05:35:18.433Z,98492.83
2023-04-01T05:37:49.287Z,98482.78
2023-04-01T05:40:20.238Z,98485.91
2023-04-01T05:42:51.101Z,98480.25
2023-04-01T05:45:22.563Z,98487.70
2023-04-01T05:48:11.351Z,98499.37
2023-04-01T05:50:43.598Z,98489.43
2023-04-01T05:53:15.206Z,98501.36
2023-04-01T05:55:47.136Z,98495.21
2023-04-01T05:58:18.084Z,98504.11
2023-04-01T06:01:02.250Z,98497.87
2023-04-01T06:03:23.111Z,98502.06
2023-04-01T06:05:54.034Z,98512.89
2023-04-01T06:08:26.537Z,98515.97
2023-04-01T06:11:01.759Z,98513.55
2023-04-01T06:13:50.562Z,98508.53
2023-04-01T06:16:23.213Z,98508.34
2023-04-01T06:19:12.238Z,98509.18
2023-04-01T06:21:52.776Z,98512.73
2023-04-01T06:24:31.326Z,98508.03
2023-04-01T06:27:09.998Z,98508.47
2023-04-01T06:29:52.451Z,98502.05
2023-04-01T06:32:30.538Z,98514.18
2023-04-01T06:35:03.854Z,98518.61
2023-04-01T06:37:42.348Z,98518.20
2023-04-01T06:40:17.434Z,98518.02
2023-04-01T06:42:50.427Z,98520.48
2023-04-01T06:45:39.613Z,98526.25
2023-04-01T06:48:32.883Z,98528.17
2023-04-01T06:51:27.998Z,98528.89
2023-04-01T06:54:21.649Z,98534.12
2023-04-01T06:57:26.887Z,98530.66
2023-04-01T06:59:59.691Z,98534.98
2023-04-01T07:02:35.262Z,98542.90
2023-04-01T07:05:06.934Z,98550.94
2023-04-01T07:07:45.983Z,98553.64
2023-04-01T07:10:21.533Z,98545.89
2023-04-01T07:13:11.866Z,98546.66
2023-04-01T07:15:48.630Z,98549.61
2023-04-01T07:18:21.701Z,98538.94
2023-04-01T07:20:54.179Z,98534.97
2023-04-01T07:23:37.252Z,98548.17
2023-04-01T07:26:22.726Z,98542.30
2023-04-01T07:28:55.773Z,98545.13
2023-04-01T07:31:38.560Z,98548.47
2023-04-01T07:34:11.485Z,98537.95
2023-04-01T07:36:47.281Z,98540.05
2023-04-01T07:39:22.773Z,98539.61
2023-04-01T07:42:18.461Z,98551.55
2023-04-01T07:45:06.731Z,98544.52
2023-04-01T07:47:56.858Z,98554.03
2023-04-01T07:50:35.366Z,98559.95
2023-04-01T07:53:23.901Z,98561.27
2023-04-01T07:56:00.484Z,98556.05
2023-04-01T07:58:37.411Z,98563.76
2023-04-01T08:01:10.549Z,98561.20
2023-04-01T08:03:43.863Z,98560.43
2023-04-01T08:06:22.125Z,98564.27
2023-04-01T08:09:00.658Z,98571.88
2023-04-01T08:11:43.805Z,98563.02
2023-04-01T08:14:33.777Z,98565.89
2023-04-01T08:17:32.935Z,98573.53
2023-04-01T08:20:05.435Z,98569.91
2023-04-01T08:22:40.515Z,98575.23
2023-04-01T08:25:14.578Z,98578.91
2023-04-01T08:27:50.241Z,98576.72
2023-04-01T08:30:25.433Z,98577.05
2023-04-01T08:33:01.024Z,98572.35
2023-04-01T08:35:35.533Z,98574.74
2023-04-01T08:38:13.985Z,98572.67
2023-04-01T08:41:04.889Z,98578.06
2023-04-01T08:43:38.860Z,98572.80
2023-04-01T08:46:12.231Z,98581.47
2023-04-01T08:48:44.760Z,98580.17
2023-04-01T08:51:19.095Z,98587.82
2023-04-01T08:54:10.078Z,98586.56
2023-04-01T08:56:51.778Z,98581.19
2023-04-01T08:59:41.767Z,98593.30
2023-04-01T09:02:17.031Z,98590.31
2023-04-01T09:05:09.555Z,98596.23
2023-04-01T09:07:54.318Z,98593.97
2023-04-01T09:10:33.203Z,98602.87
2023-04-01T09:13:12.830Z,98602.29
2023-04-01T09:15:51.323Z,98607.00
2023-04-01T09:18:31.390Z,98611.03
2023-04-01T09:21:06.656Z,98614.47
2023-04-01T09:23:39.025Z,98611.98
2023-04-01T09:26:12.023Z,98610.62
2023-04-01T09:29:01.533Z,98610.62
2023-04-01T09:31:37.175Z,98599.28
2023-04-01T09:34:29.268Z,98603.77
2023-04-01T09:37:04.538Z,98613.09
2023-04-01T09:39:40.146Z,98609.09
2023-04-01T09:42:16.776Z,98610.98
2023-04-01T09:45:03.007Z,98620.55
2023-04-01T09:47:45.310Z,98622.22
2023-04-01T09:50:17.859Z,98618.19
2023-04-01T09:54:43.429Z,98626.53
2023-04-01T09:57:43.862Z,98622.41
2023-04-01T10:00:41.672Z,98623.97
2023-04-01T10:03:52.520Z,98624.68
2023-04-01T10:07:00.985Z,98628.87
2023-04-01T10:10:01.135Z,98630.97
2023-04-01T10:12:51.163Z,98635.16
2023-04-01T10:15:32.595Z,98635.16
2023-04-01T10:18:14.885Z,98641.40
2023-04-01T10:21:08.089Z,98645.87
2023-04-01T10:24:10.007Z,98651.76
2023-04-01T10:26:52.327Z,98646.37
2023-04-01T10:29:57.573Z,98652.17
2023-04-01T10:33:07.540Z,98656.15
2023-04-01T10:35:42.595Z,98655.61
2023-04-01T10:38:38.784Z,98655.82
2023-04-01T10:41:24.705Z,98661.02
2023-04-01T10:44:10.360Z,98661.48
2023-04-01T10:46:49.015Z,98666.38
2023-04-01T10:49:41.333Z,98657.22
2023-04-01T10:52:19.422Z,98656.53
2023-04-01T10:55:01.919Z,98663.98
2023-04-01T10:58:14.170Z,98657.88
2023-04-01T11:01:23.134Z,98668.59
2023-04-01T11:04:30.566Z,98671.91
2023-04-01T11:07:35.222Z,98666.87
2023-04-01T11:10:27.805Z,98673.14
2023-04-01T11:13:04.278Z,98665.53
2023-04-01T11:15:45.010Z,98668.34
2023-04-01T11:18:32.182Z,98666.27
2023-04-01T11:21:16.110Z,98660.96
2023-04-01T11:24:06.234Z,98673.06
2023-04-01T11:27:03.385Z,98671.84
2023-04-01T11:30:00.201Z,98662.57
2023-04-01T11:32:46.546Z,98670.52
2023-04-01T11:35:48.820Z,98668.27
2023-04-01T11:38:46.293Z,98665.13
2023-04-01T11:41:58.597Z,98670.57
2023-04-01T11:45:00.091Z,98666.47
2023-04-01T11:47:57.795Z,98679.50
2023-04-01T11:50:48.835Z,98675.53
2023-04-01T11:53:56.633Z,98673.75
2023-04-01T11:56:40.545Z,98673.39
2023-04-01T11:59:45.480Z,98681.97
2023-04-01T12:02:29.333Z,98670.17
2023-04-01T12:05:20.685Z,98669.36
2023-04-01T12:08:13.410Z,98669.23
2023-04-01T12:10:51.796Z,98671.07
2023-04-01T12:13:52.164Z,98671.11
2023-04-01T12:16:31.168Z,98674.31
2023-04-01T12:19:21.171Z,98685.05
2023-04-01T12:22:01.854Z,98683.64
2023-04-01T12:24:50.598Z,98686.67
2023-04-01T12:27:43.726Z,98688.03
2023-04-01T12:30:45.354Z,98680.83
2023-04-01T12:33:38.004Z,98678.62
2023-04-01T12:36:50.740Z,98687.09
2023-04-01T12:39:57.915Z,98681.63
2023-04-01T12:42:48.152Z,98676.52
2023-04-01T12:45:35.334Z,98683.52
2023-04-01T12:48:22.391Z,98681.69
2023-04-01T12:51:16.671Z,98694.59
2023-04-01T12:54:20.370Z,98686.95
2023-04-01T12:57:01.462Z,98683.60
2023-04-01T12:59:57.981Z,98695.07
2023-04-01T13:02:33.257Z,98705.85
2023-04-01T13:05:20.897Z,98702.06
2023-04-01T13:07:58.765Z,98701.65
2023-04-01T13:10:52.053Z,98702.33
2023-04-01T13:13:44.712Z,98702.78
2023-04-01T13:16:37.092Z,98700.78
2023-04-01T13:19:21.662Z,98709.00
2023-04-01T13:22:05.425Z,98707.98
2023-04-01T13:24:54.965Z,98710.38
2023-04-01T13:27:38.675Z,98714.40
2023-04-01T13:30:34.816Z,98714.70
2023-04-01T13:33:30.847Z,98716.10
2023-04-01T13:36:14.642Z,98724.48
2023-04-01T13:39:02.022Z,98721.88
2023-04-01T13:41:49.067Z,98723.30
2023-04-01T13:44:51.376Z,98732.15
2023-04-01T13:47:35.268Z,98740.98
2023-04-01T13:50:43.035Z,98745.28
2023-04-01T13:53:36.030Z,98747.40
2023-04-01T13:56:14.059Z,98747.25
2023-04-01T13:58:55.023Z,98745.42
2023-04-01T14:01:33.145Z,98749.70
2023-04-01T14:04:14.171Z,98754.65
2023-04-01T14:07:05.448Z,98746.81
2023-04-01T14:10:15.808Z,98753.21
2023-04-01T14:12:51.418Z,98761.63
2023-04-01T14:15:35.872Z,98764.92
2023-04-01T14:18:22.720Z,98766.55
2023-04-01T14:21:15.442Z,98773.88
2023-04-01T14:24:05.296Z,98769.30
2023-04-01T14:26:49.285Z,98775.20
2023-04-01T14:29:36.456Z,98778.47
2023-04-01T14:32:14.492Z,98776.39
2023-04-01T14:35:04.440Z,98781.00
2023-04-01T14:37:42.115Z,98784.88
2023-04-01T14:40:25.755Z,98781.74
2023-04-01T14:43:09.896Z,98792.44
2023-04-01T14:46:10.212Z,98797.17
2023-04-01T14:48:57.051Z,98806.84
2023-04-01T14:51:40.975Z,98810.63
2023-04-01T14:54:25.069Z,98803.77
2023-04-01T14:57:16.263Z,98807.45
2023-04-01T14:59:51.751Z,98813.74
2023-04-01T15:02:55.156Z,98819.52
2023-04-01T15:05:54.762Z,98820.77
2023-04-01T15:08:29.753Z,98828.41
2023-04-01T15:11:20.425Z,98824.03
2023-04-01T15:14:14.398Z,98832.60
2023-04-01T15:17:13.805Z,98830.78
2023-04-01T15:20:17.752Z,98831.29
2023-04-01T15:23:02.360Z,98834.70
2023-04-01T15:25:45.979Z,98838.95
2023-04-01T15:28:30.962Z,98842.34
2023-04-01T15:31:11.758Z,98850.87
2023-04-01T15:33:56.182Z,98847.05
2023-04-01T15:36:45.879Z,98847.44
2023-04-01T15:39:21.184Z,98850.05
2023-04-01T15:41:59.336Z,98853.62
2023-04-01T15:44:56.827Z,98868.20
2023-04-01T15:47:37.878Z,98864.55
2023-04-01T15:50:25.223Z,98865.19
2023-04-01T15:53:31.854Z,98866.23
2023-04-01T15:56:13.242Z,98877.25
2023-04-01T15:58:59.897Z,98874.54
2023-04-01T16:01:51.475Z,98878.83
2023-04-01T16:04:52.008Z,98883.98
2023-04-01T16:07:52.408Z,98885.66
2023-04-01T16:10:49.610Z,98889.13
2023-04-01T16:13:46.860Z,98881.66
2023-04-01T16:16:40.772Z,98894.17
2023-04-01T16:19:22.177Z,98904.09
2023-04-01T16:22:01.816Z,98911.22
2023-04-01T16:24:42.295Z,98909.98
2023-04-01T16:27:17.448Z,98909.78
2023-04-01T16:30:04.157Z,98911.02
2023-04-01T16:33:05.488Z,98919.78
2023-04-01T16:35:58.428Z,98915.66
2023-04-01T16:38:33.386Z,98922.48
2023-04-01T16:41:14.112Z,98923.42
2023-04-01T16:44:00.883Z,98925.22
2023-04-01T16:46:41.926Z,98929.13
2023-04-01T16:49:16.873Z,98929.21
2023-04-01T16:51:57.971Z,98935.30
2023-04-01T16:54:44.902Z,98937.06
2023-04-01T16:57:25.834Z,98934.36
2023-04-01T17:00:06.734Z,98946.33
2023-04-01T17:02:41.789Z,98933.98
2023-04-01T17:05:16.844Z,98939.21
2023-04-01T17:07:52.225Z,98938.39
2023-04-01T17:10:57.195Z,98933.07
2023-04-01T17:13:32.627Z,98937.36
2023-04-01T17:16:22.825Z,98935.48
2023-04-01T17:19:03.479Z,98943.54
2023-04-01T17:21:44.285Z,98939.21
2023-04-01T17:24:31.481Z,98946.16
2023-04-01T17:27:18.541Z,98953.06
2023-04-01T17:30:20.436Z,98947.75
2023-04-01T17:33:17.013Z,98951.19
2023-04-01T17:36:08.482Z,98944.92
2023-04-01T17:38:43.416Z,98946.72
2023-04-01T17:41:39.463Z,98951.27
2023-04-01T17:44:14.631Z,98949.59
2023-04-01T17:46:52.639Z,98947.92
2023-04-01T17:49:30.658Z,98956.80
2023-04-01T17:52:08.285Z,98960.23
2023-04-01T17:54:46.009Z,98962.84
2023-04-01T17:57:46.275Z,98965.47
2023-04-01T18:00:25.164Z,98964.56
2023-04-01T18:03:18.447Z,98973.23
2023-04-01T18:05:56.197Z,98972.33
2023-04-01T18:09:02.597Z,98973.91
2023-04-01T18:11:56.954Z,98974.00
2023-04-01T18:14:31.847Z,98987.09
2023-04-01T18:17:21.685Z,98982.67
2023-04-01T18:19:57.611Z,98978.38
2023-04-01T18:23:03.728Z,98985.41
2023-04-01T18:25:42.198Z,98983.70
2023-04-01T18:28:27.714Z,98987.17
2023-04-01T18:31:07.148Z,98990.73
2023-04-01T18:33:57.045Z,98989.88
2023-04-01T18:36:44.321Z,99007.25
2023-04-01T18:39:29.684Z,99001.20
2023-04-01T18:42:28.452Z,99009.78
2023-04-01T18:45:18.415Z,99015.19
2023-04-01T18:48:11.065Z,99012.69
2023-04-01T18:51:00.251Z,99014.36
2023-04-01T18:53:38.219Z,99024.92
2023-04-01T18:56:13.123Z,99025.00
2023-04-01T18:59:07.940Z,99025.00
2023-04-01T19:02:03.642Z,99022.47
2023-04-01T19:05:12.841Z,99022.30
2023-04-01T19:07:47.813Z,99021.45
2023-04-01T19:10:34.952Z,99022.39
2023-04-01T19:13:12.901Z,99025.86
2023-04-01T19:15:56.680Z,99024.06
2023-04-01T19:18:50.826Z,99023.16
2023-04-01T19:21:44.624Z,99028.47
2023-04-01T19:24:38.407Z,99030.06
2023-04-01T19:27:38.484Z,99028.27
2023-04-01T19:30:25.712Z,99030.89
2023-04-01T19:33:00.971Z,99028.19
2023-04-01T19:35:48.428Z,99037.63
2023-04-01T19:38:38.978Z,99042.87
2023-04-01T19:41:44.078Z,99048.87
2023-04-01T19:44:40.000Z,99050.63
2023-04-01T19:47:33.299Z,99037.55
2023-04-01T19:50:25.115Z,99043.64
2023-04-01T19:53:00.061Z,99047.11
2023-04-01T19:55:50.048Z,99045.23
2023-04-01T19:58:25.208Z,99046.17
2023-04-01T20:01:00.216Z,99050.55
2023-04-01T20:03:47.058Z,99044.58
2023-04-01T20:06:32.582Z,99050.63
2023-04-01T20:09:34.602Z,99057.58
2023-04-01T20:12:09.472Z,99061.10
2023-04-01T20:14:56.368Z,99057.58
2023-04-01T20:17:36.937Z,99056.72
2023-04-01T20:20:14.524Z,99066.34
2023-04-01T20:22:49.634Z,99061.10
2023-04-01T20:25:30.894Z,99065.43
2023-04-01T20:28:05.958Z,99064.66
2023-04-01T20:30:56.108Z,99068.13
2023-04-01T20:33:58.813Z,99059.25
2023-04-01T20:36:45.753Z,99052.23
2023-04-01T20:39:45.839Z,99053.08
2023-04-01T20:42:44.632Z,99060.08
2023-04-01T20:45:25.629Z,99060.00
2023-04-01T20:48:09.242Z,99054.76
2023-04-01T20:50:55.820Z,99059.91
2023-04-01T20:53:32.387Z,99061.67
2023-04-01T20:56:13.166Z,99058.15
2023-04-01T20:58:59.862Z,99060.00
2023-04-01T21:01:53.889Z,99057.38
2023-04-01T21:04:29.686Z,99053.00
2023-04-01T21:07:07.351Z,99067.68
2023-04-01T21:09:58.139Z,99067.68
2023-04-01T21:12:58.493Z,99063.38
2023-04-01T21:15:36.887Z,99066.00
2023-04-01T21:18:23.804Z,99071.97
2023-04-01T21:21:19.853Z,99069.36
2023-04-01T21:24:06.501Z,99066.74
2023-04-01T21:26:47.160Z,99078.06
2023-04-01T21:29:41.300Z,99075.45
2023-04-01T21:32:31.992Z,99080.68
2023-04-01T21:35:09.690Z,99085.83
2023-04-01T21:37:53.424Z,99093.69
2023-04-01T21:40:43.533Z,99098.92
2023-04-01T21:43:40.540Z,99100.43
2023-04-01T21:46:33.133Z,99094.25
2023-04-01T21:49:43.985Z,99093.23
2023-04-01T21:52:51.561Z,99095.85
2023-04-01T21:55:52.444Z,99103.45
2023-04-01T21:58:39.813Z,99104.28
2023-04-01T22:01:23.989Z,99094.48
2023-04-01T22:04:04.799Z,99104.02
2023-04-01T22:06:55.281Z,99104.77
2023-04-01T22:09:32.877Z,99102.14
2023-04-01T22:12:10.460Z,99099.36
2023-04-01T22:14:45.817Z,99101.80
2023-04-01T22:17:30.662Z,99102.75
2023-04-01T22:20:05.350Z,99102.75
2023-04-01T22:22:56.610Z,99104.27
2023-04-01T22:25:43.673Z,99098.16
2023-04-01T22:28:33.741Z,99101.72
2023-04-01T22:31:08.102Z,99097.51
2023-04-01T22:33:55.221Z,99095.71
2023-04-01T22:36:30.332Z,99103.48
2023-04-01T22:39:13.898Z,99101.72
2023-04-01T22:42:01.017Z,99103.40
2023-04-01T22:44:47.881Z,99103.40
2023-04-01T22:47:22.881Z,99103.31
2023-04-01T22:50:08.271Z,99107.70
2023-04-01T22:52:46.403Z,99106.75
2023-04-01T22:55:21.950Z,99111.91
2023-04-01T22:58:02.812Z,99117.14
2023-04-01T23:00:38.606Z,99109.29
2023-04-01T23:03:25.999Z,99111.08
2023-04-01T23:06:01.278Z,99114.53
2023-04-01T23:09:03.780Z,99117.34
2023-04-01T23:11:57.022Z,99120.30
2023-04-01T23:14:45.344Z,99115.44
2023-04-01T23:17:54.948Z,99121.01
2023-04-01T23:20:38.764Z,99118.92
2023-04-01T23:23:46.532Z,99122.07
2023-04-01T23:26:22.119Z,99122.40
2023-04-01T23:28:57.518Z,99122.76
2023-04-01T23:31:44.330Z,99117.77
2023-04-01T23:34:28.243Z,99118.87
2023-04-01T23:37:09.240Z,99121.57
2023-04-01T23:39:45.032Z,99123.44
2023-04-01T23:42:38.004Z,99123.60
2023-04-01T23:45:21.900Z,99118.38
2023-04-01T23:47:54.834Z,99125.28
2023-04-01T23:50:28.416Z,99128.83
2023-04-01T23:53:03.358Z,99125.28
2023-04-01T23:55:37.123Z,99127.90
2023-04-01T23:58:18.397Z,99127.16
